Time;durP1;ratioP1;P1;durP2;ratioP2;P2;SDS_P1;SDS_P2;PMS_P1;PMS_P2;Temp;Humidity;BMP_temperature;BMP_pressure;BME280_temperature;BME280_humidity;BME280_pressure;Samples;Min_cycle;Max_cycle;Signal;HPM_P1;HPM_P2
2022/01/14 00:00:56;;;;;;;58.38;27.20;;;0.70;99.90;;;;;;5034080;28;20018;-56
2022/01/14 00:03:22;;;;;;;53.10;24.35;;;0.70;99.90;;;;;;5034253;28;20022;-56
2022/01/14 00:05:48;;;;;;;53.15;25.65;;;0.70;99.90;;;;;;5034363;28;20021;-56
2022/01/14 00:08:13;;;;;;;88.43;26.45;;;0.60;99.90;;;;;;5033432;28;20048;-56
2022/01/14 00:10:41;;;;;;;139.25;28.58;;;0.60;99.90;;;;;;5050280;28;20112;-56
2022/01/14 00:13:17;;;;;;;233.35;31.17;;;0.60;99.90;;;;;;5034938;28;20082;-56
2022/01/14 00:15:42;;;;;;;164.02;30.85;;;0.60;99.90;;;;;;5034661;28;20104;-57
2022/01/14 00:18:08;;;;;;;107.32;28.60;;;0.60;99.90;;;;;;5033066;28;20117;-57
2022/01/14 00:20:34;;;;;;;172.48;30.17;;;0.50;99.90;;;;;;5034051;28;20538;-56
2022/01/14 00:23:00;;;;;;;98.20;26.65;;;0.50;99.90;;;;;;5033957;28;20025;-56
2022/01/14 00:33:26;;;;;;;77.45;26.10;;;0.40;99.90;;;;;;5034295;28;20032;-56
2022/01/14 00:35:52;;;;;;;83.28;25.88;;;0.50;99.90;;;;;;5033600;28;20029;-56
2022/01/14 00:38:18;;;;;;;95.85;26.88;;;0.50;99.90;;;;;;5032294;28;20029;-56
2022/01/14 00:40:44;;;;;;;103.45;27.88;;;0.40;99.90;;;;;;5033474;28;20021;-56
2022/01/14 00:43:10;;;;;;;95.68;28.50;;;0.40;99.90;;;;;;5033739;28;20525;-56
2022/01/14 00:45:36;;;;;;;62.78;25.70;;;0.40;99.90;;;;;;5033952;28;20072;-56
2022/01/14 00:48:02;;;;;;;66.15;26.35;;;0.40;99.90;;;;;;5033478;28;20053;-56
2022/01/14 00:50:28;;;;;;;63.35;26.63;;;0.30;99.90;;;;;;5033515;28;20057;-56
2022/01/14 00:52:54;;;;;;;56.85;25.08;;;0.40;99.90;;;;;;5033519;28;20021;-56
2022/01/14 00:55:27;;;;;;;51.83;24.85;;;0.30;99.90;;;;;;5033553;28;20025;-56
2022/01/14 01:00:34;;;;;;;52.38;24.88;;;0.40;99.90;;;;;;5033821;28;20029;-56
2022/01/14 01:03:01;;;;;;;42.78;22.20;;;0.50;99.90;;;;;;5033292;28;20383;-56
2022/01/14 01:05:27;;;;;;;43.60;22.85;;;0.50;99.90;;;;;;5033626;28;20388;-56
2022/01/14 01:08:08;;;;;;;42.17;22.08;;;0.50;99.90;;;;;;5047741;28;20118;-56
2022/01/14 01:10:34;;;;;;;42.00;22.77;;;0.50;99.90;;;;;;5033035;28;20025;-57
2022/01/14 01:13:09;;;;;;;35.97;21.23;;;0.40;99.90;;;;;;5032997;28;20074;-57
2022/01/14 01:15:35;;;;;;;39.47;22.13;;;0.50;99.90;;;;;;5033322;28;20033;-56
2022/01/14 01:18:01;;;;;;;34.35;20.73;;;0.40;99.90;;;;;;5032859;28;20233;-56
2022/01/14 01:20:27;;;;;;;39.22;22.80;;;0.30;99.90;;;;;;5032683;28;20478;-56
2022/01/14 01:22:54;;;;;;;37.13;20.73;;;0.30;99.90;;;;;;5032894;28;20033;-56
2022/01/14 01:25:23;;;;;;;39.25;22.23;;;0.30;99.90;;;;;;5032909;28;20030;-56
2022/01/14 01:27:50;;;;;;;38.70;22.80;;;0.20;99.90;;;;;;5032605;28;20380;-56
2022/01/14 01:30:48;;;;;;;39.53;22.25;;;0.20;99.90;;;;;;5032718;28;20117;-56
2022/01/14 01:33:06;;;;;;;41.67;23.77;;;0.30;99.90;;;;;;5032698;28;20103;-56
2022/01/14 01:35:33;;;;;;;39.05;23.75;;;0.30;99.90;;;;;;5032661;28;20026;-56
2022/01/14 01:37:59;;;;;;;41.38;22.98;;;0.30;99.90;;;;;;5032697;28;20024;-56
2022/01/14 01:40:27;;;;;;;44.20;24.80;;;0.30;99.90;;;;;;5031267;28;20021;-56
2022/01/14 01:42:55;;;;;;;38.80;21.77;;;0.40;99.90;;;;;;5032624;28;20025;-56
2022/01/14 01:45:24;;;;;;;45.67;24.73;;;0.40;99.90;;;;;;5032888;28;20025;-56
2022/01/14 01:47:52;;;;;;;39.13;23.00;;;0.40;99.90;;;;;;5032714;28;20040;-56
2022/01/14 01:50:29;;;;;;;39.90;23.13;;;0.40;99.90;;;;;;5031161;28;20108;-56
2022/01/14 01:52:56;;;;;;;40.80;22.80;;;0.30;99.90;;;;;;5032288;28;20021;-56
2022/01/14 01:55:22;;;;;;;45.60;24.15;;;0.30;99.90;;;;;;5032602;28;20083;-56
2022/01/14 01:57:49;;;;;;;44.15;23.23;;;0.30;99.90;;;;;;5032470;28;20048;-56
2022/01/14 02:00:18;;;;;;;38.90;22.50;;;0.20;99.90;;;;;;5030658;28;20044;-56
2022/01/14 02:02:45;;;;;;;45.10;25.05;;;0.30;99.90;;;;;;5032339;28;20029;-56
2022/01/14 02:05:11;;;;;;;43.38;23.27;;;0.40;99.90;;;;;;5031212;28;20053;-56
2022/01/14 02:07:39;;;;;;;46.05;24.45;;;0.40;99.90;;;;;;5032039;28;20056;-56
2022/01/14 02:10:06;;;;;;;47.17;22.80;;;0.40;99.90;;;;;;5031905;28;20034;-56
2022/01/14 02:12:46;;;;;;;37.45;22.33;;;0.30;99.90;;;;;;5031941;28;20030;-56
2022/01/14 02:15:28;;;;;;;42.65;22.75;;;0.30;99.90;;;;;;5032079;28;20534;-56
2022/01/14 02:23:13;;;;;;;46.65;24.77;;;0.30;99.90;;;;;;5032208;28;20103;-56
2022/01/14 02:25:38;;;;;;;45.72;24.48;;;0.30;99.90;;;;;;5030503;28;20038;-56
2022/01/14 02:28:08;;;;;;;54.40;27.45;;;0.30;99.90;;;;;;5030498;28;20053;-56
2022/01/14 02:30:40;;;;;;;47.22;24.65;;;0.40;99.90;;;;;;5031681;28;20068;-56
2022/01/14 02:33:07;;;;;;;41.30;19.38;;;0.30;99.90;;;;;;5032121;28;20075;-56
2022/01/14 02:35:33;;;;;;;59.25;30.17;;;0.20;99.90;;;;;;5031767;28;20380;-56
2022/01/14 02:37:59;;;;;;;67.57;32.10;;;0.20;99.90;;;;;;5031902;28;20494;-56
2022/01/14 02:40:26;;;;;;;69.45;33.95;;;0.40;99.90;;;;;;5031355;28;20079;-56
2022/01/14 02:42:53;;;;;;;59.08;30.58;;;0.50;99.90;;;;;;5031159;28;20040;-56
2022/01/14 02:45:21;;;;;;;83.95;40.22;;;0.40;99.90;;;;;;5030263;28;20396;-56
2022/01/14 02:47:47;;;;;;;82.80;42.08;;;0.50;99.90;;;;;;5031067;28;20032;-56
2022/01/14 02:50:17;;;;;;;88.30;42.92;;;0.60;99.90;;;;;;5031104;28;20382;-55
2022/01/14 02:53:13;;;;;;;107.57;51.33;;;0.70;99.90;;;;;;5030951;28;20033;-55
2022/01/14 02:55:31;;;;;;;104.15;49.35;;;0.80;99.90;;;;;;5030938;28;20038;-55
2022/01/14 02:57:58;;;;;;;102.32;51.55;;;1.00;99.90;;;;;;5045714;28;20025;-55
2022/01/14 03:00:30;;;;;;;105.97;49.22;;;1.00;99.90;;;;;;5031228;28;20037;-55
2022/01/14 03:02:58;;;;;;;94.93;46.53;;;1.00;99.90;;;;;;5031230;28;20022;-55
2022/01/14 03:05:28;;;;;;;97.13;46.95;;;1.00;99.90;;;;;;5031514;28;20128;-55
2022/01/14 03:07:53;;;;;;;104.70;47.67;;;1.10;99.90;;;;;;5029642;28;20026;-56
2022/01/14 03:10:19;;;;;;;98.80;46.20;;;1.10;99.90;;;;;;5031443;28;20029;-56
2022/01/14 03:12:46;;;;;;;94.70;44.30;;;1.20;99.90;;;;;;5031055;28;20084;-56
2022/01/14 03:15:13;;;;;;;101.25;46.10;;;1.20;99.90;;;;;;5029791;28;20434;-56
2022/01/14 03:17:39;;;;;;;90.20;44.45;;;1.30;99.90;;;;;;5030948;28;20096;-56
2022/01/14 03:20:07;;;;;;;91.63;42.70;;;1.30;99.90;;;;;;5031095;28;20106;-55
2022/01/14 03:22:36;;;;;;;102.93;46.92;;;1.30;99.90;;;;;;5029637;28;20112;-55
2022/01/14 03:27:52;;;;;;;101.28;49.55;;;1.40;99.90;;;;;;5030822;28;20364;-55
2022/01/14 03:30:18;;;;;;;101.40;47.35;;;1.40;99.90;;;;;;5030616;28;20021;-56
2022/01/14 03:32:45;;;;;;;108.03;48.45;;;1.40;99.90;;;;;;5030304;28;20021;-56
2022/01/14 03:35:12;;;;;;;110.68;51.28;;;1.40;99.90;;;;;;5030926;28;20025;-56
2022/01/14 03:37:38;;;;;;;108.70;50.28;;;1.50;99.90;;;;;;5028760;28;20436;-56
2022/01/14 03:40:04;;;;;;;108.85;51.70;;;1.50;99.90;;;;;;5028924;28;20022;-56
2022/01/14 03:42:30;;;;;;;104.97;47.60;;;1.60;99.90;;;;;;5030583;28;20029;-56
2022/01/14 03:44:56;;;;;;;97.10;44.00;;;1.50;99.90;;;;;;5031316;28;20036;-56
2022/01/14 03:47:22;;;;;;;99.40;46.00;;;1.40;99.90;;;;;;5031175;28;20060;-56
2022/01/14 03:49:47;;;;;;;118.55;50.50;;;1.50;99.90;;;;;;5029714;28;20080;-56
2022/01/14 03:52:14;;;;;;;113.82;49.42;;;1.50;99.90;;;;;;5030625;28;20033;-56
2022/01/14 03:54:39;;;;;;;97.35;45.70;;;1.60;99.90;;;;;;5030576;28;20017;-56
2022/01/14 03:57:06;;;;;;;97.13;44.20;;;1.60;99.90;;;;;;5031027;28;20032;-56
2022/01/14 03:59:31;;;;;;;117.35;47.10;;;1.60;99.90;;;;;;5028610;28;20332;-56
2022/01/14 04:01:57;;;;;;;96.57;44.40;;;1.60;99.90;;;;;;5030876;28;20021;-56
2022/01/14 04:04:23;;;;;;;126.43;48.45;;;1.60;99.90;;;;;;5030912;28;20025;-56
2022/01/14 04:06:49;;;;;;;119.90;48.08;;;1.70;99.90;;;;;;5029778;28;20044;-56
2022/01/14 04:09:14;;;;;;;112.53;47.22;;;1.60;99.90;;;;;;5029863;28;20426;-56
2022/01/14 04:11:40;;;;;;;107.72;45.63;;;1.50;99.90;;;;;;5030019;28;20049;-56
2022/01/14 04:15:36;;;;;;;103.82;44.70;;;1.50;99.90;;;;;;5030805;28;20395;-56
2022/01/14 04:17:04;;;;;;;129.68;49.33;;;1.50;99.90;;;;;;5031218;28;20057;-56
2022/01/14 04:19:30;;;;;;;121.07;48.38;;;1.50;99.90;;;;;;5030702;28;20056;-56
2022/01/14 04:21:56;;;;;;;109.18;46.10;;;1.60;99.90;;;;;;5030051;28;20068;-56
2022/01/14 04:24:22;;;;;;;92.40;43.38;;;1.50;99.90;;;;;;5030198;28;20049;-56
2022/01/14 04:26:47;;;;;;;111.40;46.28;;;1.30;99.90;;;;;;5029851;28;20084;-56
2022/01/14 04:29:14;;;;;;;113.93;46.17;;;1.30;99.90;;;;;;5028603;28;20033;-56
2022/01/14 04:31:39;;;;;;;105.18;42.25;;;1.30;99.90;;;;;;5030368;28;20546;-56
2022/01/14 04:34:05;;;;;;;98.80;41.33;;;1.20;99.90;;;;;;5028594;28;20026;-56
2022/01/14 04:36:31;;;;;;;100.32;44.05;;;1.20;99.90;;;;;;5030220;28;20546;-55
2022/01/14 04:38:57;;;;;;;97.60;40.60;;;1.10;99.90;;;;;;5030244;28;20116;-55
2022/01/14 04:41:22;;;;;;;106.68;43.80;;;1.10;99.90;;;;;;5029800;28;20059;-55
2022/01/14 04:43:48;;;;;;;91.57;41.83;;;1.20;99.90;;;;;;5033529;28;20491;-55
2022/01/14 04:46:36;;;;;;;103.63;42.67;;;1.10;99.90;;;;;;5033490;28;20030;-55
2022/01/14 04:48:59;;;;;;;81.68;40.13;;;1.10;99.90;;;;;;5033839;28;20030;-55
2022/01/14 04:51:25;;;;;;;98.63;41.08;;;1.00;99.90;;;;;;5032660;28;20218;-55
2022/01/14 04:53:50;;;;;;;96.32;42.90;;;0.90;99.90;;;;;;5032619;28;20060;-55
2022/01/14 04:56:16;;;;;;;92.05;43.53;;;0.90;99.90;;;;;;5031908;28;20021;-55
2022/01/14 04:58:41;;;;;;;102.00;42.83;;;1.00;99.90;;;;;;5033596;28;20025;-55
2022/01/14 05:01:07;;;;;;;92.20;40.25;;;0.90;99.90;;;;;;5033002;28;20575;-57
2022/01/14 05:03:33;;;;;;;101.40;42.75;;;0.90;99.90;;;;;;5032483;28;20029;-57
2022/01/14 05:06:00;;;;;;;95.70;43.17;;;0.80;99.90;;;;;;5031896;28;20112;-56
2022/01/14 05:08:35;;;;;;;101.97;41.70;;;0.80;99.90;;;;;;5033028;28;20033;-56
2022/01/14 05:11:15;;;;;;;97.63;43.10;;;0.90;99.90;;;;;;5033698;28;20018;-57
2022/01/14 05:13:41;;;;;;;88.47;40.08;;;0.80;99.90;;;;;;5033530;28;20017;-57
2022/01/14 05:16:06;;;;;;;93.75;42.53;;;0.80;99.90;;;;;;5033156;28;20189;-57
2022/01/14 05:18:32;;;;;;;102.63;41.70;;;0.80;99.90;;;;;;5033090;28;20036;-57
2022/01/14 05:20:57;;;;;;;86.05;39.05;;;0.90;99.90;;;;;;5033242;28;20537;-57
2022/01/14 05:23:24;;;;;;;88.72;39.50;;;0.80;99.90;;;;;;5033688;28;20097;-56
2022/01/14 05:25:50;;;;;;;103.05;41.05;;;0.70;99.90;;;;;;5033154;28;20021;-56
2022/01/14 05:28:15;;;;;;;99.32;41.88;;;0.80;99.90;;;;;;5032710;28;20491;-56
2022/01/14 05:30:41;;;;;;;87.57;42.60;;;0.80;99.90;;;;;;5032727;28;20045;-56
2022/01/14 05:33:07;;;;;;;101.38;44.40;;;0.80;99.90;;;;;;5032933;28;20363;-57
2022/01/14 05:35:32;;;;;;;104.03;46.83;;;0.80;99.90;;;;;;5032893;28;20155;-56
2022/01/14 05:37:58;;;;;;;96.10;44.22;;;0.80;99.90;;;;;;5033304;28;20017;-56
2022/01/14 05:40:26;;;;;;;95.03;43.40;;;0.80;99.90;;;;;;5033159;28;20029;-56
2022/01/14 05:42:52;;;;;;;98.03;43.22;;;0.70;99.90;;;;;;5032538;28;20014;-56
2022/01/14 05:45:18;;;;;;;93.95;42.42;;;0.70;99.90;;;;;;5033005;28;20443;-57
2022/01/14 05:47:44;;;;;;;99.07;44.33;;;0.70;99.90;;;;;;5032696;28;20028;-56
2022/01/14 05:50:15;;;;;;;94.70;42.28;;;0.70;99.90;;;;;;5032429;28;20025;-56
2022/01/14 05:52:41;;;;;;;99.93;43.00;;;0.70;99.90;;;;;;5032601;28;20028;-56
2022/01/14 05:55:08;;;;;;;98.80;44.30;;;0.60;99.90;;;;;;5032123;28;20018;-56
2022/01/14 05:57:34;;;;;;;94.90;42.03;;;0.60;99.90;;;;;;5032207;28;20017;-56
2022/01/14 06:00:01;;;;;;;90.50;42.50;;;0.50;99.90;;;;;;5032190;28;20029;-56
2022/01/14 06:02:27;;;;;;;89.28;43.47;;;0.50;99.90;;;;;;5030920;28;20445;-57
2022/01/14 06:04:53;;;;;;;103.07;45.47;;;0.50;99.90;;;;;;5032350;28;20108;-56
2022/01/14 06:07:18;;;;;;;94.38;44.15;;;0.60;99.90;;;;;;5032327;28;20064;-56
2022/01/14 06:09:44;;;;;;;123.53;60.47;;;0.40;99.90;;;;;;5031887;28;20035;-56
2022/01/14 06:12:10;;;;;;;122.97;62.35;;;0.30;99.90;;;;;;5032093;28;20029;-56
2022/01/14 06:14:36;;;;;;;119.63;59.72;;;0.30;99.90;;;;;;5032234;28;20447;-56
2022/01/14 06:17:01;;;;;;;97.93;44.90;;;0.40;99.90;;;;;;5032596;28;20108;-57
2022/01/14 06:19:29;;;;;;;100.45;44.38;;;0.30;99.90;;;;;;5032036;28;20030;-57
2022/01/14 06:21:56;;;;;;;127.60;52.55;;;0.20;99.90;;;;;;5032069;28;20037;-56
2022/01/14 06:24:23;;;;;;;134.93;52.05;;;0.40;99.90;;;;;;5030610;28;20053;-55
2022/01/14 06:26:48;;;;;;;142.40;51.90;;;0.60;99.90;;;;;;5031867;28;20574;-56
2022/01/14 06:29:14;;;;;;;137.00;49.67;;;0.70;99.90;;;;;;5031597;28;20120;-56
2022/01/14 06:31:39;;;;;;;171.35;55.78;;;0.80;99.90;;;;;;5031445;28;20399;-56
2022/01/14 06:34:05;;;;;;;219.88;53.00;;;0.90;99.90;;;;;;5032150;28;20030;-57
2022/01/14 06:36:31;;;;;;;171.77;53.53;;;0.90;99.90;;;;;;5032045;28;20061;-57
2022/01/14 06:38:56;;;;;;;162.40;50.42;;;1.00;99.90;;;;;;5031337;28;20403;-57
2022/01/14 06:41:22;;;;;;;192.23;54.40;;;1.10;99.90;;;;;;5031558;28;20037;-56
2022/01/14 06:43:48;;;;;;;319.73;55.28;;;1.10;99.90;;;;;;5031842;28;20025;-56
2022/01/14 06:46:13;;;;;;;188.88;54.05;;;1.00;99.90;;;;;;5031898;28;20040;-57
2022/01/14 06:48:39;;;;;;;205.48;53.83;;;1.00;99.90;;;;;;5027633;28;20143;-57
2022/01/14 06:51:04;;;;;;;355.25;58.85;;;1.10;99.90;;;;;;5025564;28;20083;-56
2022/01/14 06:53:30;;;;;;;424.77;63.00;;;1.20;99.90;;;;;;5013960;28;20121;-56
2022/01/14 06:55:56;;;;;;;427.13;69.38;;;1.30;99.90;;;;;;5019485;28;20010;-56
2022/01/14 06:58:21;;;;;;;634.03;76.93;;;1.40;99.90;;;;;;5009936;28;20026;-56
2022/01/14 07:00:47;;;;;;;358.50;60.20;;;1.50;99.90;;;;;;5013900;28;20475;-56
2022/01/14 07:03:13;;;;;;;326.42;56.92;;;1.50;99.90;;;;;;5017841;28;20083;-56
2022/01/14 07:05:38;;;;;;;393.63;61.85;;;1.40;99.90;;;;;;5018128;28;20033;-57
2022/01/14 07:08:04;;;;;;;381.38;80.50;;;1.60;99.90;;;;;;5013369;28;20398;-57
2022/01/14 07:10:35;;;;;;;275.90;57.28;;;1.80;99.90;;;;;;5019093;28;20060;-57
2022/01/14 07:13:01;;;;;;;464.67;60.13;;;1.70;99.90;;;;;;5029099;28;20036;-57
2022/01/14 07:15:26;;;;;;;340.98;60.67;;;1.70;99.90;;;;;;5019447;28;20017;-58
2022/01/14 07:17:52;;;;;;;379.20;62.10;;;1.80;99.90;;;;;;5011786;28;20028;-57
2022/01/14 07:20:18;;;;;;;434.05;62.70;;;1.90;99.90;;;;;;5012759;28;20113;-57
2022/01/14 07:22:46;;;;;;;319.20;50.05;;;1.80;99.90;;;;;;5012539;28;20033;-56
2022/01/14 07:25:12;;;;;;;472.05;60.15;;;1.70;99.90;;;;;;5013302;28;20029;-57
2022/01/14 07:27:37;;;;;;;398.52;54.60;;;1.60;99.90;;;;;;5010269;28;20085;-59
2022/01/14 07:30:05;;;;;;;266.50;51.83;;;1.60;99.90;;;;;;5011608;28;20041;-58
2022/01/14 07:32:30;;;;;;;300.58;53.22;;;1.80;99.90;;;;;;5015401;28;20044;-57
2022/01/14 07:34:56;;;;;;;313.98;50.25;;;1.80;99.90;;;;;;5017247;28;20022;-57
2022/01/14 07:37:22;;;;;;;145.65;42.40;;;1.60;99.90;;;;;;5008843;28;20029;-57
2022/01/14 07:39:47;;;;;;;203.73;38.50;;;1.50;99.90;;;;;;5006188;28;20064;-58
2022/01/14 07:42:13;;;;;;;234.75;44.08;;;1.30;99.90;;;;;;5014145;28;20141;-58
2022/01/14 07:44:39;;;;;;;165.95;40.30;;;1.30;99.90;;;;;;5022490;28;20022;-57
2022/01/14 07:47:05;;;;;;;105.07;39.15;;;1.30;99.90;;;;;;5018632;28;20025;-57
2022/01/14 07:49:31;;;;;;;109.25;41.30;;;1.30;99.90;;;;;;5022217;28;20029;-57
2022/01/14 07:51:57;;;;;;;110.00;44.30;;;1.40;99.90;;;;;;5020629;28;20021;-57
2022/01/14 07:54:23;;;;;;;108.40;42.75;;;1.60;99.90;;;;;;5017791;28;20021;-57
2022/01/14 07:56:52;;;;;;;94.97;42.45;;;1.60;99.90;;;;;;5025286;28;20020;-57
2022/01/14 07:59:21;;;;;;;91.05;44.97;;;1.50;99.90;;;;;;5019412;28;20386;-57
2022/01/14 08:01:49;;;;;;;81.70;43.50;;;1.40;99.90;;;;;;5001568;28;20458;-57
2022/01/14 08:04:16;;;;;;;80.65;43.42;;;1.40;99.90;;;;;;5011726;28;20026;-57
2022/01/14 08:06:50;;;;;;;73.18;40.53;;;1.50;99.90;;;;;;5017281;28;20029;-57
2022/01/14 08:09:17;;;;;;;61.30;33.88;;;1.50;99.90;;;;;;5011006;28;20127;-57
2022/01/14 08:11:44;;;;;;;61.45;33.53;;;1.30;99.90;;;;;;5010613;28;20080;-57
2022/01/14 08:14:10;;;;;;;56.70;32.92;;;1.10;99.90;;;;;;5015650;28;21041;-58
2022/01/14 08:16:36;;;;;;;53.08;32.30;;;1.10;99.90;;;;;;5016481;28;20030;-56
2022/01/14 08:19:01;;;;;;;88.60;36.42;;;1.20;99.90;;;;;;5019084;28;20038;-56
2022/01/14 08:21:27;;;;;;;86.95;41.85;;;1.00;99.90;;;;;;5026568;28;20494;-56
2022/01/14 08:23:53;;;;;;;89.38;44.97;;;0.90;99.90;;;;;;5024431;28;20372;-57
2022/01/14 08:26:19;;;;;;;221.70;52.78;;;0.90;99.90;;;;;;5019094;28;20033;-56
2022/01/14 08:28:44;;;;;;;102.45;48.33;;;0.90;99.90;;;;;;5023448;28;20402;-56
2022/01/14 08:31:10;;;;;;;139.43;45.45;;;1.20;99.90;;;;;;5023990;28;20490;-56
2022/01/14 08:33:36;;;;;;;105.70;43.40;;;1.30;99.90;;;;;;5025883;28;20488;-56
2022/01/14 08:36:02;;;;;;;140.23;48.90;;;1.40;99.90;;;;;;5020200;28;20033;-56
2022/01/14 08:38:28;;;;;;;123.65;48.15;;;1.60;99.90;;;;;;5021472;28;20087;-56
2022/01/14 08:40:53;;;;;;;140.90;50.78;;;1.70;99.90;;;;;;5024177;28;20443;-57
2022/01/14 08:43:19;;;;;;;147.80;44.53;;;1.50;99.90;;;;;;5027167;28;20033;-57
2022/01/14 08:45:46;;;;;;;165.27;40.55;;;1.50;99.90;;;;;;5025007;28;20049;-58
2022/01/14 08:48:11;;;;;;;179.35;39.78;;;1.30;99.90;;;;;;5026686;28;20030;-56
2022/01/14 08:50:38;;;;;;;135.40;42.28;;;1.20;99.90;;;;;;5028737;28;20040;-56
2022/01/14 08:53:10;;;;;;;151.20;42.40;;;1.20;99.90;;;;;;5028497;28;20017;-57
2022/01/14 08:55:36;;;;;;;122.28;37.67;;;1.00;99.90;;;;;;5029153;28;20062;-57
2022/01/14 08:58:03;;;;;;;190.30;42.47;;;0.90;99.90;;;;;;5021172;28;20062;-56
2022/01/14 09:00:30;;;;;;;105.35;41.25;;;0.90;99.90;;;;;;5017741;28;20128;-57
2022/01/14 09:02:56;;;;;;;144.77;41.95;;;0.90;99.90;;;;;;5015361;28;20046;-57
2022/01/14 09:05:23;;;;;;;112.28;43.95;;;0.90;99.90;;;;;;5019382;28;20066;-57
2022/01/14 09:07:50;;;;;;;136.57;46.33;;;0.90;99.90;;;;;;5019370;28;20033;-57
2022/01/14 09:10:18;;;;;;;175.48;46.20;;;1.20;99.90;;;;;;5024153;28;20064;-57
2022/01/14 09:12:43;;;;;;;99.72;40.13;;;1.30;99.90;;;;;;5019502;28;20268;-57
2022/01/14 09:15:09;;;;;;;109.05;42.60;;;1.50;99.90;;;;;;5018127;28;20497;-57
2022/01/14 09:17:36;;;;;;;105.15;38.78;;;1.70;99.90;;;;;;5023114;28;20021;-57
2022/01/14 09:20:03;;;;;;;73.53;36.60;;;1.80;99.90;;;;;;5014661;28;20034;-57
2022/01/14 09:22:30;;;;;;;74.90;38.75;;;1.70;99.90;;;;;;5010982;28;20037;-57
2022/01/14 09:24:59;;;;;;;82.22;36.65;;;1.80;99.90;;;;;;5024363;28;20030;-57
2022/01/14 09:27:26;;;;;;;71.95;37.10;;;1.60;99.90;;;;;;5009541;28;20056;-57
2022/01/14 09:29:54;;;;;;;106.43;38.78;;;1.60;99.90;;;;;;5010460;28;20037;-57
2022/01/14 09:32:20;;;;;;;77.20;34.47;;;1.60;99.90;;;;;;5017077;28;20284;-57
2022/01/14 09:34:46;;;;;;;86.32;37.83;;;1.70;99.90;;;;;;5016784;28;20475;-57
2022/01/14 09:37:12;;;;;;;66.07;35.80;;;1.70;99.90;;;;;;5017955;28;20541;-58
2022/01/14 09:39:39;;;;;;;64.68;32.67;;;2.00;99.90;;;;;;5015960;28;20026;-58
2022/01/14 09:42:06;;;;;;;69.15;33.30;;;2.10;99.90;;;;;;5019164;28;20018;-58
2022/01/14 09:44:31;;;;;;;96.40;35.28;;;2.10;99.90;;;;;;5026759;28;20127;-58
2022/01/14 09:46:57;;;;;;;65.82;31.98;;;2.00;99.90;;;;;;5016143;28;20033;-58
2022/01/14 09:49:23;;;;;;;62.15;29.83;;;2.40;99.90;;;;;;5022791;28;20040;-58
2022/01/14 09:51:48;;;;;;;73.20;27.63;;;2.60;99.90;;;;;;5018669;28;20064;-58
2022/01/14 09:54:14;;;;;;;58.72;25.58;;;2.60;99.90;;;;;;5023603;28;20148;-57
2022/01/14 09:56:41;;;;;;;45.03;26.30;;;3.00;99.90;;;;;;5019816;28;20033;-57
2022/01/14 09:59:07;;;;;;;40.22;24.40;;;3.20;99.90;;;;;;5035664;28;20116;-57
2022/01/14 10:01:42;;;;;;;40.63;23.38;;;3.50;99.90;;;;;;5030683;28;20498;-57
2022/01/14 10:04:14;;;;;;;31.20;21.98;;;4.10;99.90;;;;;;5027418;28;20033;-57
2022/01/14 10:06:45;;;;;;;29.63;20.80;;;4.60;99.90;;;;;;5020448;28;20433;-57
2022/01/14 10:09:29;;;;;;;27.52;19.75;;;4.80;99.90;;;;;;5021669;28;20032;-57
2022/01/14 10:12:10;;;;;;;42.13;30.70;;;4.90;99.90;;;;;;5027748;28;20391;-57
2022/01/14 10:14:38;;;;;;;36.35;24.05;;;5.60;99.90;;;;;;5020998;28;20021;-57
2022/01/14 10:17:07;;;;;;;35.47;22.88;;;5.40;99.90;;;;;;5022763;28;20045;-57
2022/01/14 10:19:41;;;;;;;40.88;25.88;;;4.90;99.90;;;;;;5018768;28;20025;-57
2022/01/14 10:22:28;;;;;;;44.60;26.83;;;4.50;99.90;;;;;;5017216;28;20033;-57
2022/01/14 10:24:59;;;;;;;58.47;27.55;;;4.50;99.90;;;;;;5020374;28;20718;-57
2022/01/14 10:27:39;;;;;;;62.33;27.52;;;3.70;99.90;;;;;;5023720;28;20049;-57
2022/01/14 10:30:10;;;;;;;40.88;26.67;;;3.80;99.90;;;;;;5018859;28;20034;-57
2022/01/14 10:32:38;;;;;;;72.22;27.25;;;4.00;99.90;;;;;;5024947;28;20391;-57
2022/01/14 10:35:09;;;;;;;38.15;24.00;;;4.10;99.90;;;;;;5012071;28;20430;-57
2022/01/14 10:37:35;;;;;;;41.63;24.63;;;3.90;99.90;;;;;;5015810;28;20018;-57
2022/01/14 10:40:04;;;;;;;45.55;23.77;;;4.00;99.90;;;;;;5021912;28;20025;-58
2022/01/14 10:42:35;;;;;;;42.42;24.10;;;3.80;99.90;;;;;;5018054;28;20022;-57
2022/01/14 10:45:22;;;;;;;41.65;24.95;;;3.70;99.90;;;;;;5020602;28;20487;-57
2022/01/14 10:47:59;;;;;;;39.10;23.70;;;3.70;99.90;;;;;;5021634;28;20116;-57
2022/01/14 10:50:37;;;;;;;51.75;23.60;;;3.50;99.90;;;;;;5026374;28;20581;-58
2022/01/14 10:53:11;;;;;;;38.05;23.20;;;3.40;99.90;;;;;;5016933;28;20367;-57
2022/01/14 10:55:41;;;;;;;37.72;24.00;;;3.50;99.90;;;;;;5026267;28;20056;-57
2022/01/14 10:58:31;;;;;;;46.42;24.55;;;3.40;99.90;;;;;;5023346;28;20386;-57
2022/01/14 11:00:57;;;;;;;38.13;22.30;;;3.50;99.90;;;;;;5023176;28;20041;-57
2022/01/14 11:03:42;;;;;;;34.70;21.10;;;3.80;99.90;;;;;;5019428;28;20041;-57
2022/01/14 11:06:29;;;;;;;42.33;19.70;;;4.00;99.90;;;;;;5018531;28;20065;-57
2022/01/14 11:09:06;;;;;;;29.92;20.00;;;4.20;99.90;;;;;;5017316;28;20088;-57
2022/01/14 11:11:38;;;;;;;41.22;21.58;;;4.30;99.90;;;;;;5017539;28;20053;-56
2022/01/14 11:14:05;;;;;;;37.13;21.85;;;4.40;99.90;;;;;;5022126;28;20384;-56
2022/01/14 11:16:31;;;;;;;30.10;20.90;;;4.50;99.90;;;;;;5018168;28;20025;-56
2022/01/14 11:18:59;;;;;;;30.35;20.02;;;4.70;99.90;;;;;;5027842;28;20450;-56
2022/01/14 11:24:14;;;;;;;34.55;22.67;;;4.70;99.90;;;;;;5018048;28;20047;-56
2022/01/14 11:26:43;;;;;;;40.42;22.90;;;4.60;99.90;;;;;;5009191;28;20133;-56
2022/01/14 11:29:15;;;;;;;36.92;22.92;;;5.00;99.90;;;;;;5013751;28;20033;-57
2022/01/14 11:31:42;;;;;;;34.00;21.23;;;5.70;99.90;;;;;;5011846;28;20025;-56
2022/01/14 11:34:10;;;;;;;33.75;20.90;;;6.00;99.90;;;;;;5017660;28;20042;-56
2022/01/14 11:37:06;;;;;;;39.08;20.90;;;6.00;99.90;;;;;;5021337;28;20124;-57
2022/01/14 11:39:36;;;;;;;32.33;20.00;;;6.20;99.90;;;;;;5016404;28;20034;-56
2022/01/14 11:42:14;;;;;;;29.63;22.80;;;6.70;99.90;;;;;;5020473;28;20053;-57
2022/01/14 11:44:43;;;;;;;34.75;22.98;;;7.40;99.90;;;;;;5028096;28;20034;-57
2022/01/14 11:47:42;;;;;;;28.15;19.23;;;7.80;99.90;;;;;;5019518;28;20463;-57
2022/01/14 11:50:27;;;;;;;28.77;19.13;;;7.70;99.90;;;;;;5022617;28;20087;-56
2022/01/14 11:52:54;;;;;;;30.05;20.05;;;8.00;99.90;;;;;;5016212;28;20034;-57
2022/01/14 11:55:22;;;;;;;29.42;20.10;;;8.00;99.90;;;;;;5014703;28;20472;-57
2022/01/14 11:57:53;;;;;;;37.25;20.50;;;8.40;99.90;;;;;;5017922;28;20026;-56
2022/01/14 12:00:27;;;;;;;31.27;20.25;;;8.40;99.90;;;;;;5014252;28;20507;-56
2022/01/14 12:03:26;;;;;;;29.02;19.45;;;9.00;99.90;;;;;;5016578;28;20045;-57
2022/01/14 12:06:06;;;;;;;36.33;23.02;;;9.10;99.90;;;;;;5015246;28;20033;-57
2022/01/14 12:08:33;;;;;;;32.53;22.35;;;9.50;99.90;;;;;;5010597;28;20030;-57
2022/01/14 12:11:07;;;;;;;28.45;22.05;;;10.00;99.90;;;;;;5015770;28;20092;-57
2022/01/14 12:13:50;;;;;;;27.50;20.83;;;11.10;99.90;;;;;;5013742;28;20025;-57
2022/01/14 12:16:35;;;;;;;36.38;21.95;;;11.20;99.90;;;;;;5015651;28;20083;-57
2022/01/14 12:19:02;;;;;;;28.08;19.33;;;10.90;99.90;;;;;;5021727;28;20036;-57
2022/01/14 12:21:43;;;;;;;32.20;21.27;;;10.30;99.90;;;;;;5026316;28;20033;-56
2022/01/14 12:24:14;;;;;;;33.40;21.52;;;9.10;99.90;;;;;;5023882;28;20091;-57
2022/01/14 12:27:01;;;;;;;31.50;21.37;;;8.00;99.90;;;;;;5016369;28;20041;-57
2022/01/14 12:29:32;;;;;;;37.20;21.65;;;7.90;99.90;;;;;;5009468;28;20721;-56
2022/01/14 12:32:11;;;;;;;52.65;27.77;;;7.30;99.90;;;;;;5024973;28;20562;-56
2022/01/14 12:34:39;;;;;;;51.33;25.17;;;6.90;99.90;;;;;;5030414;28;20025;-57
2022/01/14 12:37:07;;;;;;;72.00;28.08;;;6.90;99.90;;;;;;5025604;28;20561;-57
2022/01/14 12:39:33;;;;;;;91.43;29.75;;;6.60;99.90;;;;;;5024285;28;20033;-56
2022/01/14 12:42:00;;;;;;;66.35;29.88;;;6.90;99.90;;;;;;5030589;28;20514;-56
2022/01/14 12:44:27;;;;;;;144.30;30.85;;;6.70;99.90;;;;;;5019844;28;20032;-56
2022/01/14 12:47:06;;;;;;;68.30;29.02;;;6.50;99.90;;;;;;5030992;28;20030;-56
2022/01/14 12:49:39;;;;;;;91.03;28.27;;;6.20;99.90;;;;;;5036847;28;20083;-56
2022/01/14 12:52:14;;;;;;;92.45;30.15;;;5.60;99.90;;;;;;5036782;28;20105;-56
2022/01/14 12:54:42;;;;;;;125.15;29.98;;;5.40;99.90;;;;;;5024266;28;20030;-56
2022/01/14 12:57:08;;;;;;;55.50;29.83;;;5.30;99.90;;;;;;5013795;28;20486;-56
2022/01/14 12:59:45;;;;;;;76.03;27.85;;;5.40;99.90;;;;;;5021348;28;20119;-57
2022/01/14 13:02:22;;;;;;;112.07;32.60;;;5.60;99.90;;;;;;5015496;28;20515;-56